createdAt,value
2018-12-17T00:02:00.301Z,74.13
2018-12-17T00:06:58.713Z,74.14
2018-12-17T00:09:24.797Z,74.04
2018-12-17T00:11:50.845Z,74.08
2018-12-17T00:14:17.221Z,74.22
2018-12-17T00:16:43.935Z,73.92
2018-12-17T00:19:10.005Z,74.04
2018-12-17T00:21:36.163Z,74.19
2018-12-17T00:24:02.190Z,74.35
2018-12-17T00:26:28.256Z,74.21
2018-12-17T00:28:54.636Z,74.25
2018-12-17T00:31:20.688Z,74.47
2018-12-17T00:33:46.753Z,74.31
2018-12-17T00:36:13.185Z,74.18
2018-12-17T00:38:39.225Z,74.30
2018-12-17T00:41:05.257Z,74.23
2018-12-17T00:43:31.731Z,74.17
2018-12-17T00:45:57.775Z,74.20
2018-12-17T00:48:23.915Z,74.40
2018-12-17T00:50:50.064Z,74.24
2018-12-17T00:53:16.135Z,74.14
2018-12-17T00:55:42.234Z,74.21
2018-12-17T00:58:14.996Z,74.03
2018-12-17T01:00:36.463Z,74.37
2018-12-17T01:03:02.469Z,74.18
2018-12-17T01:05:28.713Z,74.37
2018-12-17T01:07:54.750Z,74.19
2018-12-17T01:10:20.797Z,74.07
2018-12-17T01:12:47.129Z,74.06
2018-12-17T01:15:13.287Z,74.39
2018-12-17T01:17:39.324Z,74.30
2018-12-17T01:20:05.967Z,74.37
2018-12-17T01:22:32.032Z,74.34
2018-12-17T01:24:58.040Z,74.38
2018-12-17T01:27:24.310Z,74.39
2018-12-17T01:29:50.367Z,74.40
2018-12-17T01:32:16.401Z,74.45
2018-12-17T01:34:42.627Z,74.57
2018-12-17T01:37:08.681Z,74.51
2018-12-17T01:39:34.715Z,74.59
2018-12-17T01:42:00.916Z,74.48
2018-12-17T01:44:26.991Z,74.24
2018-12-17T01:46:53.034Z,74.23
2018-12-17T01:49:19.383Z,74.26
2018-12-17T01:51:45.480Z,74.44
2018-12-17T01:54:11.510Z,74.45
2018-12-17T01:56:37.842Z,74.27
2018-12-17T01:59:04.002Z,74.56
2018-12-17T02:01:30.201Z,74.46
2018-12-17T02:03:56.472Z,74.50
2018-12-17T02:06:22.559Z,74.47
2018-12-17T02:08:48.734Z,74.33
2018-12-17T02:11:15.040Z,74.29
2018-12-17T02:13:41.230Z,74.39
2018-12-17T02:16:07.581Z,74.28
2018-12-17T02:18:33.700Z,74.41
2018-12-17T02:20:59.740Z,74.40
2018-12-17T02:23:25.760Z,74.47
2018-12-17T02:25:52.018Z,74.65
2018-12-17T02:28:18.088Z,74.49
2018-12-17T02:30:44.115Z,74.44
2018-12-17T02:33:10.436Z,74.49
2018-12-17T02:35:36.481Z,74.55
2018-12-17T02:38:02.566Z,74.64
2018-12-17T02:40:28.876Z,74.59
2018-12-17T02:43:01.775Z,74.61
2018-12-17T02:45:27.811Z,74.54
2018-12-17T02:47:53.996Z,74.59
2018-12-17T02:50:20.048Z,74.77
2018-12-17T02:52:46.089Z,74.74
2018-12-17T02:55:12.282Z,74.78
2018-12-17T02:57:38.344Z,74.61
2018-12-17T03:00:06.338Z,74.71
2018-12-17T03:02:32.572Z,74.93
2018-12-17T03:04:58.646Z,74.90
2018-12-17T03:07:24.731Z,75.06
2018-12-17T03:09:51.087Z,75.17
2018-12-17T03:12:17.126Z,75.00
2018-12-17T03:14:43.147Z,75.05
2018-12-17T03:17:09.556Z,75.22
2018-12-17T03:19:35.589Z,75.20
2018-12-17T03:22:01.759Z,75.02
2018-12-17T03:24:28.026Z,75.16
2018-12-17T03:26:54.057Z,75.00
2018-12-17T03:29:20.089Z,75.04
2018-12-17T03:31:46.765Z,75.14
2018-12-17T03:34:12.790Z,75.46
2018-12-17T03:36:38.843Z,75.55
2018-12-17T03:39:05.363Z,75.51
2018-12-17T03:41:31.512Z,75.43
2018-12-17T03:43:57.521Z,75.58
2018-12-17T03:46:23.791Z,75.66
2018-12-17T03:48:49.850Z,75.79
2018-12-17T03:51:15.873Z,75.73
2018-12-17T03:53:42.105Z,75.63
2018-12-17T03:56:08.115Z,75.44
2018-12-17T03:58:34.156Z,75.78
2018-12-17T04:01:00.363Z,75.64
2018-12-17T04:03:26.413Z,75.76
2018-12-17T04:05:52.451Z,75.72
2018-12-17T04:08:18.779Z,75.92
2018-12-17T04:10:44.848Z,75.98
2018-12-17T04:13:11.128Z,75.79
2018-12-17T04:15:37.425Z,75.75
2018-12-17T04:18:03.848Z,75.87
2018-12-17T04:20:29.885Z,75.83
2018-12-17T04:22:56.116Z,76.01
2018-12-17T04:25:22.184Z,75.87
2018-12-17T04:27:48.251Z,76.14
2018-12-17T04:30:14.369Z,75.98
2018-12-17T04:32:40.407Z,75.94
2018-12-17T04:35:06.450Z,75.96
2018-12-17T04:37:32.721Z,75.99
2018-12-17T04:39:58.730Z,75.82
2018-12-17T04:42:24.826Z,76.01
2018-12-17T04:44:51.045Z,76.04
2018-12-17T04:47:17.078Z,75.87
2018-12-17T04:49:43.127Z,75.94
2018-12-17T04:52:09.334Z,75.98
2018-12-17T04:54:35.509Z,75.80
2018-12-17T04:57:01.579Z,75.73
2018-12-17T04:59:27.867Z,75.92
2018-12-17T05:01:54.495Z,76.05
2018-12-17T05:04:20.565Z,76.06
2018-12-17T05:06:46.773Z,76.05
2018-12-17T05:09:12.842Z,76.26
2018-12-17T05:11:38.826Z,76.51
2018-12-17T05:14:05.118Z,76.30
2018-12-17T05:16:31.180Z,76.29
2018-12-17T05:18:57.275Z,76.44
2018-12-17T05:21:23.687Z,76.58
2018-12-17T05:23:49.777Z,76.45
2018-12-17T05:26:16.081Z,76.40
2018-12-17T05:28:42.224Z,76.44
2018-12-17T05:31:08.367Z,76.32
2018-12-17T05:33:34.518Z,76.48
2018-12-17T05:36:00.915Z,76.54
2018-12-17T05:38:27.138Z,76.47
2018-12-17T05:40:53.417Z,76.59
2018-12-17T05:43:19.958Z,76.54
2018-12-17T05:45:46.025Z,76.60
2018-12-17T05:48:12.057Z,76.46
2018-12-17T05:50:38.319Z,76.75
2018-12-17T05:53:04.410Z,76.44
2018-12-17T05:55:30.478Z,76.64
2018-12-17T05:57:56.641Z,76.61
2018-12-17T06:00:23.914Z,76.61
2018-12-17T06:02:49.934Z,76.73
2018-12-17T06:05:16.268Z,76.70
2018-12-17T06:07:42.346Z,76.59
2018-12-17T06:10:08.446Z,76.81
2018-12-17T06:12:34.664Z,76.65
2018-12-17T06:15:00.755Z,76.67
2018-12-17T06:17:26.826Z,76.64
2018-12-17T06:19:53.077Z,76.77
2018-12-17T06:22:19.101Z,76.90
2018-12-17T06:24:45.432Z,76.90
2018-12-17T06:27:11.544Z,76.81
2018-12-17T06:29:37.546Z,76.75
2018-12-17T06:32:03.612Z,76.98
2018-12-17T06:34:29.757Z,76.98
2018-12-17T06:36:55.820Z,76.86
2018-12-17T06:39:22.058Z,76.77
2018-12-17T06:41:48.302Z,76.97
2018-12-17T06:44:14.419Z,76.97
2018-12-17T06:46:40.482Z,77.01
2018-12-17T06:49:06.718Z,76.91
2018-12-17T06:51:32.896Z,77.01
2018-12-17T06:53:59.010Z,77.12
2018-12-17T06:56:25.271Z,76.94
2018-12-17T06:58:51.352Z,76.96
2018-12-17T07:01:17.416Z,76.99
2018-12-17T07:03:43.674Z,76.81
2018-12-17T07:06:09.753Z,76.92
2018-12-17T07:08:35.846Z,76.89
2018-12-17T07:11:02.408Z,77.00
2018-12-17T07:13:28.480Z,76.87
2018-12-17T07:15:54.545Z,77.03
2018-12-17T07:18:20.824Z,76.90
2018-12-17T07:20:47.093Z,76.94
2018-12-17T07:26:09.531Z,76.99
2018-12-17T07:28:35.757Z,76.97
2018-12-17T07:31:01.831Z,77.10
2018-12-17T07:33:28.862Z,76.99
2018-12-17T07:35:55.503Z,77.08
2018-12-17T07:38:21.547Z,77.16
2018-12-17T07:40:47.761Z,77.26
2018-12-17T07:43:13.950Z,77.27
2018-12-17T07:45:39.979Z,77.09
2018-12-17T07:48:06.063Z,77.03
2018-12-17T07:50:32.293Z,77.36
2018-12-17T07:52:58.361Z,77.27
2018-12-17T07:55:24.403Z,77.32
2018-12-17T07:57:50.765Z,77.15
2018-12-17T08:00:16.859Z,77.39
2018-12-17T08:02:42.900Z,77.30
2018-12-17T08:05:09.510Z,77.29
2018-12-17T08:07:35.532Z,77.29
2018-12-17T08:10:01.615Z,77.24
2018-12-17T08:12:27.882Z,77.34
2018-12-17T08:14:53.961Z,77.31
2018-12-17T08:17:20.063Z,77.19
2018-12-17T08:19:46.336Z,77.31
2018-12-17T08:22:12.527Z,77.32
2018-12-17T08:24:38.576Z,77.16
2018-12-17T08:27:04.788Z,77.29
2018-12-17T08:29:30.850Z,77.46
2018-12-17T08:31:56.895Z,77.46
2018-12-17T08:34:23.161Z,77.26
2018-12-17T08:36:49.238Z,77.19
2018-12-17T08:39:15.389Z,77.37
2018-12-17T08:41:41.655Z,77.09
2018-12-17T08:44:07.720Z,77.13
2018-12-17T08:46:33.738Z,77.23
2018-12-17T08:49:00.042Z,77.27
2018-12-17T08:51:26.104Z,77.28
2018-12-17T08:53:53.089Z,77.23
2018-12-17T08:59:15.725Z,77.09
2018-12-17T09:01:42.258Z,77.26
2018-12-17T09:04:08.316Z,77.05
2018-12-17T09:06:34.347Z,77.11
2018-12-17T09:09:00.608Z,77.12
2018-12-17T09:11:26.909Z,77.23
2018-12-17T09:13:52.978Z,77.25
2018-12-17T09:16:19.285Z,77.11
2018-12-17T09:18:45.380Z,77.27
2018-12-17T09:21:11.444Z,77.27
2018-12-17T09:23:37.910Z,77.50
2018-12-17T09:26:04.089Z,77.49
2018-12-17T09:28:30.154Z,77.42
2018-12-17T09:30:56.524Z,77.66
2018-12-17T09:33:22.541Z,77.33
2018-12-17T09:35:48.647Z,77.30
2018-12-17T09:38:14.944Z,77.37
2018-12-17T09:40:41.110Z,77.45
2018-12-17T09:43:07.429Z,77.29
2018-12-17T09:45:33.665Z,77.36
2018-12-17T09:47:59.669Z,77.61
2018-12-17T09:50:25.754Z,77.26
2018-12-17T09:52:52.667Z,77.42
2018-12-17T09:55:18.779Z,77.41
2018-12-17T09:57:44.819Z,77.42
2018-12-17T10:00:11.258Z,77.52
2018-12-17T10:02:37.282Z,77.46
2018-12-17T10:05:03.764Z,77.64
2018-12-17T10:07:30.622Z,77.46
2018-12-17T10:09:56.731Z,77.56
2018-12-17T10:12:22.776Z,77.59
2018-12-17T10:14:48.984Z,77.47
2018-12-17T10:17:15.038Z,77.41
2018-12-17T10:19:41.119Z,77.43
2018-12-17T10:22:08.197Z,77.55
2018-12-17T10:24:34.616Z,77.59
2018-12-17T10:27:00.670Z,77.37
2018-12-17T10:29:26.951Z,77.58
2018-12-17T10:31:52.984Z,77.46
2018-12-17T10:34:20.034Z,77.58
2018-12-17T10:36:46.422Z,77.43
2018-12-17T10:39:12.492Z,77.50
2018-12-17T10:41:38.716Z,77.49
2018-12-17T10:46:57.595Z,77.37
2018-12-17T10:49:23.935Z,77.56
2018-12-17T10:51:50.860Z,77.52
2018-12-17T10:54:17.211Z,77.60
2018-12-17T10:56:43.533Z,77.58
2018-12-17T10:59:09.586Z,77.48
2018-12-17T11:01:41.813Z,77.52
2018-12-17T11:04:10.073Z,77.38
2018-12-17T11:06:36.124Z,77.56
2018-12-17T11:09:06.230Z,77.76
2018-12-17T11:11:32.564Z,77.66
2018-12-17T11:13:59.436Z,77.54
2018-12-17T11:16:25.536Z,77.62
2018-12-17T11:21:44.628Z,77.74
2018-12-17T11:24:12.011Z,77.74
2018-12-17T11:26:38.325Z,77.61
2018-12-17T11:29:04.413Z,77.81
2018-12-17T11:31:31.252Z,77.65
2018-12-17T11:33:57.371Z,77.62
2018-12-17T11:36:23.427Z,77.56
2018-12-17T11:38:49.859Z,77.58
2018-12-17T11:41:15.937Z,77.65
2018-12-17T11:43:44.012Z,77.70
2018-12-17T11:46:10.367Z,77.69
2018-12-17T11:48:36.566Z,77.56
2018-12-17T11:51:02.624Z,77.68
2018-12-17T11:53:28.977Z,77.86
2018-12-17T11:55:55.069Z,77.87
2018-12-17T11:58:21.312Z,77.79
2018-12-17T12:00:53.628Z,77.67
2018-12-17T12:03:16.614Z,77.75
2018-12-17T12:05:42.744Z,77.76
2018-12-17T12:08:09.017Z,77.65
2018-12-17T12:10:35.095Z,77.76
2018-12-17T12:13:01.201Z,77.79
2018-12-17T12:15:27.462Z,77.88
2018-12-17T12:17:53.528Z,77.91
2018-12-17T12:20:19.596Z,77.94
2018-12-17T12:22:45.947Z,77.84
2018-12-17T12:25:12.031Z,77.87
2018-12-17T12:27:38.841Z,78.02
2018-12-17T12:30:07.812Z,77.97
2018-12-17T12:32:34.004Z,78.05
2018-12-17T12:35:00.447Z,77.98
2018-12-17T12:37:26.800Z,77.99
2018-12-17T12:39:52.829Z,78.02
2018-12-17T12:42:18.929Z,78.19
2018-12-17T12:44:45.155Z,78.10
2018-12-17T12:47:11.217Z,78.10
2018-12-17T12:49:37.261Z,78.04
2018-12-17T12:52:03.590Z,77.92
2018-12-17T12:54:29.662Z,78.04
2018-12-17T12:56:55.666Z,78.08
2018-12-17T12:59:21.856Z,78.17
2018-12-17T13:01:47.908Z,78.24
2018-12-17T13:04:14.010Z,78.05
2018-12-17T13:06:40.306Z,78.00
2018-12-17T13:09:06.661Z,78.06
2018-12-17T13:11:32.803Z,78.29
2018-12-17T13:13:59.033Z,78.04
2018-12-17T13:16:25.095Z,78.12
2018-12-17T13:18:51.233Z,78.01
2018-12-17T13:21:18.964Z,78.13
2018-12-17T13:23:45.039Z,78.09
2018-12-17T13:26:11.171Z,78.12
2018-12-17T13:28:39.487Z,78.08
2018-12-17T13:31:05.727Z,78.22
2018-12-17T13:33:31.771Z,78.20
2018-12-17T13:35:58.002Z,78.09
2018-12-17T13:38:24.039Z,78.19
2018-12-17T13:40:50.224Z,78.30
2018-12-17T13:43:16.431Z,78.15
2018-12-17T13:45:42.507Z,78.28
2018-12-17T13:48:08.648Z,78.19
2018-12-17T13:50:42.357Z,78.23
2018-12-17T13:53:14.302Z,78.11
2018-12-17T13:55:40.608Z,78.12
2018-12-17T13:58:06.904Z,78.26
2018-12-17T14:00:32.965Z,78.15
2018-12-17T14:02:59.083Z,78.31
2018-12-17T14:05:25.286Z,78.23
2018-12-17T14:07:51.333Z,77.97
2018-12-17T14:10:23.395Z,78.04
2018-12-17T14:12:49.605Z,78.18
2018-12-17T14:15:16.837Z,78.24
2018-12-17T14:17:45.161Z,78.39
2018-12-17T14:20:17.484Z,78.17
2018-12-17T14:22:43.649Z,78.34
2018-12-17T14:25:09.721Z,78.15
2018-12-17T14:27:36.021Z,78.27
2018-12-17T14:30:03.532Z,78.10
2018-12-17T14:32:29.609Z,78.20
2018-12-17T14:34:55.946Z,78.26
2018-12-17T14:37:22.199Z,78.28
2018-12-17T14:39:49.500Z,78.13
2018-12-17T14:42:15.744Z,78.27
2018-12-17T14:44:41.831Z,78.22
2018-12-17T14:47:07.859Z,78.29
2018-12-17T14:49:34.001Z,78.29
2018-12-17T14:52:00.056Z,78.24
2018-12-17T14:54:26.154Z,78.33
2018-12-17T14:56:52.538Z,78.22
2018-12-17T14:59:18.566Z,78.25
2018-12-17T15:01:44.698Z,78.34
2018-12-17T15:04:10.987Z,78.44
2018-12-17T15:06:37.101Z,78.08
2018-12-17T15:09:05.400Z,78.19
2018-12-17T15:11:31.811Z,78.14
2018-12-17T15:13:57.882Z,78.27
2018-12-17T15:16:23.957Z,78.45
2018-12-17T15:18:50.187Z,78.42
2018-12-17T15:21:16.281Z,78.40
2018-12-17T15:23:42.396Z,78.37
2018-12-17T15:26:08.624Z,78.23
2018-12-17T15:28:34.733Z,78.30
2018-12-17T15:31:01.078Z,78.21
2018-12-17T15:33:27.530Z,78.34
2018-12-17T15:35:53.561Z,78.39
2018-12-17T15:38:19.613Z,78.27
2018-12-17T15:40:45.932Z,78.41
2018-12-17T15:43:11.980Z,78.38
2018-12-17T15:45:38.061Z,78.33
2018-12-17T15:48:04.323Z,78.07
2018-12-17T15:50:30.405Z,78.22
2018-12-17T15:52:56.475Z,78.15
2018-12-17T15:55:22.783Z,78.19
2018-12-17T15:57:49.372Z,78.25
2018-12-17T16:00:15.501Z,78.12
2018-12-17T16:02:41.990Z,78.27
2018-12-17T16:05:08.052Z,78.29
2018-12-17T16:07:34.146Z,77.99
2018-12-17T16:10:00.601Z,78.23
2018-12-17T16:12:26.922Z,78.08
2018-12-17T16:14:52.994Z,78.21
2018-12-17T16:17:19.137Z,78.31
2018-12-17T16:19:45.206Z,78.42
2018-12-17T16:22:11.380Z,78.26
2018-12-17T16:24:37.759Z,78.26
2018-12-17T16:27:03.789Z,78.37
2018-12-17T16:29:29.849Z,78.24
2018-12-17T16:31:57.473Z,78.21
2018-12-17T16:34:23.985Z,78.22
2018-12-17T16:36:50.868Z,78.09
2018-12-17T16:39:17.055Z,78.16
2018-12-17T16:41:43.143Z,78.26
2018-12-17T16:44:09.264Z,78.23
2018-12-17T16:46:35.796Z,78.13
2018-12-17T16:49:01.868Z,78.27
2018-12-17T16:51:28.084Z,78.23
2018-12-17T16:53:54.323Z,78.41
2018-12-17T16:56:20.526Z,78.41
2018-12-17T16:58:46.586Z,78.26
2018-12-17T17:01:12.976Z,78.41
2018-12-17T17:03:38.974Z,78.40
2018-12-17T17:06:05.188Z,78.37
2018-12-17T17:08:31.454Z,78.45
2018-12-17T17:10:57.497Z,78.69
2018-12-17T17:13:23.570Z,78.40
2018-12-17T17:15:49.760Z,78.34
2018-12-17T17:18:15.883Z,78.25
2018-12-17T17:20:42.013Z,78.46
2018-12-17T17:23:08.330Z,78.24
2018-12-17T17:25:34.408Z,78.47
2018-12-17T17:28:00.484Z,78.36
2018-12-17T17:30:26.766Z,78.36
2018-12-17T17:32:52.970Z,78.59
2018-12-17T17:35:19.017Z,78.51
2018-12-17T17:37:45.272Z,78.30
2018-12-17T17:40:11.320Z,78.44
2018-12-17T17:42:37.477Z,78.63
2018-12-17T17:45:04.144Z,78.47
2018-12-17T17:47:30.258Z,78.66
2018-12-17T17:49:56.330Z,78.71
2018-12-17T17:52:22.503Z,78.65
2018-12-17T17:54:48.628Z,78.77
2018-12-17T17:57:14.719Z,78.93
2018-12-17T17:59:40.945Z,78.75
2018-12-17T18:02:06.983Z,78.97
2018-12-17T18:04:33.145Z,78.96
2018-12-17T18:06:59.377Z,78.95
2018-12-17T18:09:25.670Z,79.00
2018-12-17T18:11:51.862Z,78.91
2018-12-17T18:14:18.015Z,79.13
2018-12-17T18:16:44.061Z,79.01
2018-12-17T18:19:10.224Z,78.99
2018-12-17T18:21:36.436Z,79.10
2018-12-17T18:24:02.663Z,79.03
2018-12-17T18:26:35.767Z,78.99
2018-12-17T18:29:02.759Z,79.18
2018-12-17T18:31:29.152Z,79.08
2018-12-17T18:33:55.327Z,79.24
2018-12-17T18:36:21.509Z,79.16
2018-12-17T18:38:47.742Z,79.27
2018-12-17T18:41:13.812Z,79.17
2018-12-17T18:43:39.977Z,79.15
2018-12-17T18:46:06.119Z,79.20
2018-12-17T18:48:32.136Z,79.27
2018-12-17T18:50:58.320Z,79.34
2018-12-17T18:53:24.395Z,79.25
2018-12-17T18:55:50.482Z,79.44
2018-12-17T18:58:16.657Z,79.24
2018-12-17T19:00:42.861Z,79.21
2018-12-17T19:03:08.996Z,79.45
2018-12-17T19:05:35.256Z,79.44
2018-12-17T19:08:01.344Z,79.47
2018-12-17T19:10:29.448Z,79.37
2018-12-17T19:12:55.672Z,79.53
2018-12-17T19:15:21.780Z,79.47
2018-12-17T19:17:47.860Z,79.51
2018-12-17T19:20:14.138Z,79.36
2018-12-17T19:22:40.215Z,79.60
2018-12-17T19:25:06.476Z,79.50
2018-12-17T19:27:32.736Z,79.57
2018-12-17T19:29:58.798Z,79.59
2018-12-17T19:32:24.941Z,79.61
2018-12-17T19:34:51.441Z,79.46
2018-12-17T19:37:17.494Z,79.32
2018-12-17T19:39:43.560Z,79.39
2018-12-17T19:42:09.818Z,79.40
2018-12-17T19:44:35.884Z,79.66
2018-12-17T19:47:01.978Z,79.55
2018-12-17T19:49:28.136Z,79.56
2018-12-17T19:51:54.184Z,79.49
2018-12-17T19:54:20.278Z,79.77
2018-12-17T19:56:46.498Z,79.45
2018-12-17T19:59:12.516Z,79.50
2018-12-17T20:01:38.601Z,79.65
2018-12-17T20:04:04.861Z,79.62
2018-12-17T20:06:30.896Z,79.75
2018-12-17T20:08:56.962Z,79.55
2018-12-17T20:11:29.184Z,79.65
2018-12-17T20:13:55.223Z,79.80
2018-12-17T20:16:21.589Z,79.70
2018-12-17T20:18:54.706Z,79.66
2018-12-17T20:21:20.853Z,79.68
2018-12-17T20:23:46.923Z,79.71
2018-12-17T20:26:13.174Z,79.70
2018-12-17T20:28:39.217Z,79.77
2018-12-17T20:31:05.354Z,79.58
2018-12-17T20:33:31.598Z,79.72
2018-12-17T20:35:57.733Z,79.69
2018-12-17T20:38:23.802Z,79.60
2018-12-17T20:40:49.990Z,79.61
2018-12-17T20:43:16.086Z,79.68
2018-12-17T20:45:42.216Z,79.81
2018-12-17T20:48:08.567Z,79.79
2018-12-17T20:50:34.655Z,79.64
2018-12-17T20:53:00.726Z,79.66
2018-12-17T20:55:30.532Z,79.84
2018-12-17T20:57:54.992Z,79.69
2018-12-17T21:00:21.103Z,79.76
2018-12-17T21:05:43.445Z,79.77
2018-12-17T21:08:09.670Z,79.70
2018-12-17T21:10:35.738Z,79.59
2018-12-17T21:13:01.852Z,79.81
2018-12-17T21:15:28.008Z,79.75
2018-12-17T21:17:54.070Z,79.82
2018-12-17T21:20:20.127Z,79.75
2018-12-17T21:22:46.468Z,79.70
2018-12-17T21:25:12.527Z,79.59
2018-12-17T21:27:38.584Z,79.73
2018-12-17T21:30:05.926Z,79.71
2018-12-17T21:32:31.981Z,79.58
2018-12-17T21:34:58.079Z,79.69
2018-12-17T21:37:24.352Z,79.60
2018-12-17T21:39:50.431Z,79.78
2018-12-17T21:42:16.561Z,79.71
2018-12-17T21:44:42.775Z,79.61
2018-12-17T21:47:08.879Z,79.60
2018-12-17T21:49:34.939Z,79.91
2018-12-17T21:52:01.241Z,79.61
2018-12-17T21:54:27.292Z,79.75
2018-12-17T21:56:53.491Z,79.53
2018-12-17T21:59:19.694Z,79.50
2018-12-17T22:01:45.795Z,79.87
2018-12-17T22:04:11.855Z,79.65
2018-12-17T22:06:38.133Z,79.68
2018-12-17T22:09:05.305Z,79.63
2018-12-17T22:11:31.372Z,79.59
2018-12-17T22:13:57.565Z,79.43
2018-12-17T22:16:23.600Z,79.68
2018-12-17T22:18:49.698Z,79.76
2018-12-17T22:21:15.894Z,79.60
2018-12-17T22:23:41.905Z,79.58
2018-12-17T22:26:07.968Z,79.67
2018-12-17T22:28:34.258Z,79.62
2018-12-17T22:34:29.292Z,79.73
2018-12-17T22:36:55.394Z,79.65
2018-12-17T22:39:22.675Z,79.62
2018-12-17T22:41:48.863Z,79.48
2018-12-17T22:44:14.916Z,79.70
2018-12-17T22:46:40.972Z,79.66
2018-12-17T22:49:07.273Z,79.55
2018-12-17T22:51:33.343Z,79.66
2018-12-17T22:53:59.383Z,79.69
2018-12-17T22:56:25.702Z,79.63
2018-12-17T22:58:51.730Z,79.59
2018-12-17T23:01:17.788Z,79.75
2018-12-17T23:03:44.101Z,79.79
2018-12-17T23:06:10.117Z,79.58
2018-12-17T23:08:38.185Z,79.69
2018-12-17T23:11:16.510Z,79.47
2018-12-17T23:13:54.622Z,79.56
2018-12-17T23:16:33.144Z,79.62
2018-12-17T23:18:59.016Z,79.66
2018-12-17T23:21:25.036Z,79.73
2018-12-17T23:23:51.266Z,79.79
2018-12-17T23:26:17.370Z,79.73
2018-12-17T23:28:43.425Z,79.76
2018-12-17T23:31:09.717Z,79.76
2018-12-17T23:36:12.127Z,79.61
2018-12-17T23:38:38.156Z,79.56
2018-12-17T23:41:04.406Z,79.77
2018-12-17T23:43:30.670Z,79.90
2018-12-17T23:45:56.700Z,79.76
2018-12-17T23:48:22.784Z,79.63
2018-12-17T23:50:49.060Z,79.75
2018-12-17T23:53:15.277Z,79.63
2018-12-17T23:55:41.320Z,79.76
2018-12-17T23:58:07.668Z,79.67
